sensor_id;sensor_type;location;lat;lon;timestamp;temperature;humidity
6756;DHT22;3415;51.148;7.014;2022-12-16T00:01:08;-7.20;1.00
6756;DHT22;3415;51.148;7.014;2022-12-16T00:03:37;-7.20;1.00
6756;DHT22;3415;51.148;7.014;2022-12-16T00:06:07;-7.30;1.00
6756;DHT22;3415;51.148;7.014;2022-12-16T00:08:36;-7.30;1.00
6756;DHT22;3415;51.148;7.014;2022-12-16T00:11:04;-7.20;1.00
6756;DHT22;3415;51.148;7.014;2022-12-16T00:13:33;-7.30;1.00
6756;DHT22;3415;51.148;7.014;2022-12-16T00:16:03;-7.20;1.00
6756;DHT22;3415;51.148;7.014;2022-12-16T00:18:31;-7.20;1.00
6756;DHT22;3415;51.148;7.014;2022-12-16T00:20:59;-7.20;1.00
6756;DHT22;3415;51.148;7.014;2022-12-16T00:23:27;-7.20;1.00
6756;DHT22;3415;51.148;7.014;2022-12-16T00:25:55;-7.20;1.00
6756;DHT22;3415;51.148;7.014;2022-12-16T00:30:50;-7.30;1.00
6756;DHT22;3415;51.148;7.014;2022-12-16T00:33:19;-5.70;1.00
6756;DHT22;3415;51.148;7.014;2022-12-16T00:35:48;-7.40;1.00
6756;DHT22;3415;51.148;7.014;2022-12-16T00:38:17;-7.50;1.00
6756;DHT22;3415;51.148;7.014;2022-12-16T00:43:12;-7.50;1.00
6756;DHT22;3415;51.148;7.014;2022-12-16T00:50:35;-7.60;1.00
6756;DHT22;3415;51.148;7.014;2022-12-16T00:53:02;-7.50;1.00
6756;DHT22;3415;51.148;7.014;2022-12-16T00:55:32;-7.20;1.00
6756;DHT22;3415;51.148;7.014;2022-12-16T00:57:59;-7.60;1.00
6756;DHT22;3415;51.148;7.014;2022-12-16T01:02:53;-7.60;1.00
6756;DHT22;3415;51.148;7.014;2022-12-16T01:05:21;-7.50;1.00
6756;DHT22;3415;51.148;7.014;2022-12-16T01:07:51;-7.50;1.00
6756;DHT22;3415;51.148;7.014;2022-12-16T01:12:47;-7.50;1.00
6756;DHT22;3415;51.148;7.014;2022-12-16T01:15:15;-7.50;1.00
6756;DHT22;3415;51.148;7.014;2022-12-16T01:20:10;-7.50;1.00
6756;DHT22;3415;51.148;7.014;2022-12-16T01:25:05;-7.50;1.00
6756;DHT22;3415;51.148;7.014;2022-12-16T01:27:33;-7.60;1.00
6756;DHT22;3415;51.148;7.014;2022-12-16T01:30:02;-7.60;1.00
6756;DHT22;3415;51.148;7.014;2022-12-16T01:34:56;-7.60;1.00
6756;DHT22;3415;51.148;7.014;2022-12-16T01:37:24;-7.60;1.00
6756;DHT22;3415;51.148;7.014;2022-12-16T01:39:51;-7.60;1.00
6756;DHT22;3415;51.148;7.014;2022-12-16T01:42:19;-7.70;1.00
6756;DHT22;3415;51.148;7.014;2022-12-16T01:44:49;-7.70;1.00
6756;DHT22;3415;51.148;7.014;2022-12-16T01:47:22;-6.90;1.00
6756;DHT22;3415;51.148;7.014;2022-12-16T01:49:54;-7.70;1.00
6756;DHT22;3415;51.148;7.014;2022-12-16T01:52:24;-7.70;1.00
6756;DHT22;3415;51.148;7.014;2022-12-16T01:54:57;-7.70;1.00
6756;DHT22;3415;51.148;7.014;2022-12-16T01:57:32;-7.70;1.00
6756;DHT22;3415;51.148;7.014;2022-12-16T02:00:03;-7.80;1.00
6756;DHT22;3415;51.148;7.014;2022-12-16T02:02:33;-7.80;1.00
6756;DHT22;3415;51.148;7.014;2022-12-16T02:05:00;-7.80;1.00
6756;DHT22;3415;51.148;7.014;2022-12-16T02:07:54;-8.50;1.00
6756;DHT22;3415;51.148;7.014;2022-12-16T02:10:32;-7.80;1.00
6756;DHT22;3415;51.148;7.014;2022-12-16T02:13:14;-7.80;1.00
6756;DHT22;3415;51.148;7.014;2022-12-16T02:15:49;-7.70;1.00
6756;DHT22;3415;51.148;7.014;2022-12-16T02:18:28;-7.70;1.00
6756;DHT22;3415;51.148;7.014;2022-12-16T02:21:36;-7.80;1.00
6756;DHT22;3415;51.148;7.014;2022-12-16T02:24:47;-7.70;1.00
6756;DHT22;3415;51.148;7.014;2022-12-16T02:27:51;-7.70;1.00
6756;DHT22;3415;51.148;7.014;2022-12-16T02:33:40;-7.80;1.00
6756;DHT22;3415;51.148;7.014;2022-12-16T02:36:21;-7.80;1.00
6756;DHT22;3415;51.148;7.014;2022-12-16T02:38:56;-7.80;1.00
6756;DHT22;3415;51.148;7.014;2022-12-16T02:41:31;-7.90;1.00
6756;DHT22;3415;51.148;7.014;2022-12-16T02:44:05;-7.90;1.00
6756;DHT22;3415;51.148;7.014;2022-12-16T02:46:39;-7.90;1.00
6756;DHT22;3415;51.148;7.014;2022-12-16T02:52:07;-7.90;1.00
6756;DHT22;3415;51.148;7.014;2022-12-16T02:54:34;-8.00;1.00
6756;DHT22;3415;51.148;7.014;2022-12-16T02:57:07;-8.00;1.00
6756;DHT22;3415;51.148;7.014;2022-12-16T02:59:55;-8.00;1.00
6756;DHT22;3415;51.148;7.014;2022-12-16T03:02:31;-8.00;1.00
6756;DHT22;3415;51.148;7.014;2022-12-16T03:05:05;-8.00;1.00
6756;DHT22;3415;51.148;7.014;2022-12-16T03:07:37;-8.00;1.00
6756;DHT22;3415;51.148;7.014;2022-12-16T03:10:09;-8.00;1.00
6756;DHT22;3415;51.148;7.014;2022-12-16T03:12:40;-8.00;1.00
6756;DHT22;3415;51.148;7.014;2022-12-16T03:15:09;-8.00;1.00
6756;DHT22;3415;51.148;7.014;2022-12-16T03:17:39;-8.00;1.00
6756;DHT22;3415;51.148;7.014;2022-12-16T03:20:10;-8.10;1.00
6756;DHT22;3415;51.148;7.014;2022-12-16T03:22:41;-8.10;1.00
6756;DHT22;3415;51.148;7.014;2022-12-16T03:25:10;-8.00;1.00
6756;DHT22;3415;51.148;7.014;2022-12-16T03:27:43;-8.10;1.00
6756;DHT22;3415;51.148;7.014;2022-12-16T03:30:15;-8.00;1.00
6756;DHT22;3415;51.148;7.014;2022-12-16T03:32:49;-8.00;1.00
6756;DHT22;3415;51.148;7.014;2022-12-16T03:35:20;-8.00;1.00
6756;DHT22;3415;51.148;7.014;2022-12-16T03:37:51;-8.00;1.00
6756;DHT22;3415;51.148;7.014;2022-12-16T03:40:22;-8.00;1.00
6756;DHT22;3415;51.148;7.014;2022-12-16T03:42:50;-8.10;1.00
6756;DHT22;3415;51.148;7.014;2022-12-16T03:45:22;-8.00;1.00
6756;DHT22;3415;51.148;7.014;2022-12-16T03:47:54;-8.00;1.00
6756;DHT22;3415;51.148;7.014;2022-12-16T03:50:25;-8.10;1.00
6756;DHT22;3415;51.148;7.014;2022-12-16T03:52:55;-8.10;1.00
6756;DHT22;3415;51.148;7.014;2022-12-16T03:55:22;-8.10;1.00
6756;DHT22;3415;51.148;7.014;2022-12-16T03:57:49;-8.10;1.00
6756;DHT22;3415;51.148;7.014;2022-12-16T04:00:16;-8.10;1.00
6756;DHT22;3415;51.148;7.014;2022-12-16T04:05:13;-8.10;1.00
6756;DHT22;3415;51.148;7.014;2022-12-16T04:07:40;-8.20;1.00
6756;DHT22;3415;51.148;7.014;2022-12-16T04:10:08;-8.10;1.00
6756;DHT22;3415;51.148;7.014;2022-12-16T04:12:35;-8.10;1.00
6756;DHT22;3415;51.148;7.014;2022-12-16T04:15:20;-8.10;1.00
6756;DHT22;3415;51.148;7.014;2022-12-16T04:18:07;-8.20;1.00
6756;DHT22;3415;51.148;7.014;2022-12-16T04:20:56;-8.20;1.00
6756;DHT22;3415;51.148;7.014;2022-12-16T04:23:45;-8.20;1.00
6756;DHT22;3415;51.148;7.014;2022-12-16T04:26:32;-8.20;1.00
6756;DHT22;3415;51.148;7.014;2022-12-16T04:29:20;-8.20;1.00
6756;DHT22;3415;51.148;7.014;2022-12-16T04:31:47;-8.20;1.00
6756;DHT22;3415;51.148;7.014;2022-12-16T04:34:14;-8.20;1.00
6756;DHT22;3415;51.148;7.014;2022-12-16T04:36:56;-8.20;1.00
6756;DHT22;3415;51.148;7.014;2022-12-16T04:39:43;-8.20;1.00
6756;DHT22;3415;51.148;7.014;2022-12-16T04:42:27;-8.20;1.00
6756;DHT22;3415;51.148;7.014;2022-12-16T04:45:13;-8.20;1.00
6756;DHT22;3415;51.148;7.014;2022-12-16T04:47:57;-8.20;1.00
6756;DHT22;3415;51.148;7.014;2022-12-16T04:50:43;-8.20;1.00
6756;DHT22;3415;51.148;7.014;2022-12-16T04:53:34;-8.20;1.00
6756;DHT22;3415;51.148;7.014;2022-12-16T04:56:19;-8.10;1.00
6756;DHT22;3415;51.148;7.014;2022-12-16T04:59:03;-8.20;1.00
6756;DHT22;3415;51.148;7.014;2022-12-16T05:01:44;-8.30;1.00
6756;DHT22;3415;51.148;7.014;2022-12-16T05:04:29;-8.20;1.00
6756;DHT22;3415;51.148;7.014;2022-12-16T05:07:13;-8.30;1.00
6756;DHT22;3415;51.148;7.014;2022-12-16T05:09:59;-8.20;1.00
6756;DHT22;3415;51.148;7.014;2022-12-16T05:12:44;-8.30;1.00
6756;DHT22;3415;51.148;7.014;2022-12-16T05:15:28;-8.30;1.00
6756;DHT22;3415;51.148;7.014;2022-12-16T05:18:15;-8.30;1.00
6756;DHT22;3415;51.148;7.014;2022-12-16T05:21:01;-8.40;1.00
6756;DHT22;3415;51.148;7.014;2022-12-16T05:23:46;-8.30;1.00
6756;DHT22;3415;51.148;7.014;2022-12-16T05:26:32;-8.40;1.00
6756;DHT22;3415;51.148;7.014;2022-12-16T05:29:17;-8.40;1.00
6756;DHT22;3415;51.148;7.014;2022-12-16T05:32:01;-8.40;1.00
6756;DHT22;3415;51.148;7.014;2022-12-16T05:34:46;-8.40;1.00
6756;DHT22;3415;51.148;7.014;2022-12-16T05:37:31;-8.40;1.00
6756;DHT22;3415;51.148;7.014;2022-12-16T05:40:15;-8.40;1.00
6756;DHT22;3415;51.148;7.014;2022-12-16T05:43:01;-8.40;1.00
6756;DHT22;3415;51.148;7.014;2022-12-16T05:45:46;-8.30;1.00
6756;DHT22;3415;51.148;7.014;2022-12-16T05:51:15;-8.40;1.00
6756;DHT22;3415;51.148;7.014;2022-12-16T05:53:59;-8.30;1.00
6756;DHT22;3415;51.148;7.014;2022-12-16T05:56:44;-8.30;1.00
6756;DHT22;3415;51.148;7.014;2022-12-16T05:59:30;-8.30;1.00
6756;DHT22;3415;51.148;7.014;2022-12-16T06:02:14;-8.40;1.00
6756;DHT22;3415;51.148;7.014;2022-12-16T06:04:59;-8.40;1.00
6756;DHT22;3415;51.148;7.014;2022-12-16T06:07:49;-8.20;1.00
6756;DHT22;3415;51.148;7.014;2022-12-16T06:10:34;-8.30;1.00
6756;DHT22;3415;51.148;7.014;2022-12-16T06:16:16;-8.40;1.00
6756;DHT22;3415;51.148;7.014;2022-12-16T06:19:01;-8.40;1.00
6756;DHT22;3415;51.148;7.014;2022-12-16T06:21:46;-8.40;1.00
6756;DHT22;3415;51.148;7.014;2022-12-16T06:24:30;-8.40;1.00
6756;DHT22;3415;51.148;7.014;2022-12-16T06:32:47;-8.40;1.00
6756;DHT22;3415;51.148;7.014;2022-12-16T06:41:12;-8.40;1.00
6756;DHT22;3415;51.148;7.014;2022-12-16T06:43:57;-8.50;1.00
6756;DHT22;3415;51.148;7.014;2022-12-16T06:49:27;-8.50;1.00
6756;DHT22;3415;51.148;7.014;2022-12-16T06:54:55;-8.50;1.00
6756;DHT22;3415;51.148;7.014;2022-12-16T06:57:40;-8.40;1.00
6756;DHT22;3415;51.148;7.014;2022-12-16T07:00:25;-8.40;1.00
6756;DHT22;3415;51.148;7.014;2022-12-16T07:03:10;-8.40;1.00
6756;DHT22;3415;51.148;7.014;2022-12-16T07:05:56;-8.40;1.00
6756;DHT22;3415;51.148;7.014;2022-12-16T07:11:25;-8.50;1.00
6756;DHT22;3415;51.148;7.014;2022-12-16T07:14:11;-8.50;1.00
6756;DHT22;3415;51.148;7.014;2022-12-16T07:16:57;-8.50;1.00
6756;DHT22;3415;51.148;7.014;2022-12-16T07:22:34;-8.40;1.00
6756;DHT22;3415;51.148;7.014;2022-12-16T07:39:04;-8.20;1.00
6756;DHT22;3415;51.148;7.014;2022-12-16T07:41:48;-8.20;1.00
6756;DHT22;3415;51.148;7.014;2022-12-16T07:47:17;-8.20;1.00
6756;DHT22;3415;51.148;7.014;2022-12-16T07:50:02;-8.10;1.00
6756;DHT22;3415;51.148;7.014;2022-12-16T07:52:53;-8.10;1.00
6756;DHT22;3415;51.148;7.014;2022-12-16T07:55:41;-8.00;1.00
6756;DHT22;3415;51.148;7.014;2022-12-16T08:04:01;-7.90;1.00
6756;DHT22;3415;51.148;7.014;2022-12-16T08:06:47;-7.90;1.00
6756;DHT22;3415;51.148;7.014;2022-12-16T08:12:17;-7.80;1.00
6756;DHT22;3415;51.148;7.014;2022-12-16T08:15:02;-7.70;1.00
6756;DHT22;3415;51.148;7.014;2022-12-16T08:17:48;-7.70;1.00
6756;DHT22;3415;51.148;7.014;2022-12-16T08:23:27;-7.20;1.00
6756;DHT22;3415;51.148;7.014;2022-12-16T08:28:56;-7.20;1.00
6756;DHT22;3415;51.148;7.014;2022-12-16T08:31:41;-7.10;1.00
6756;DHT22;3415;51.148;7.014;2022-12-16T08:37:09;-6.90;1.00
6756;DHT22;3415;51.148;7.014;2022-12-16T08:39:55;-6.90;1.00
6756;DHT22;3415;51.148;7.014;2022-12-16T08:42:39;-6.80;1.00
6756;DHT22;3415;51.148;7.014;2022-12-16T08:45:23;-6.70;1.00
6756;DHT22;3415;51.148;7.014;2022-12-16T08:48:08;-6.60;1.00
6756;DHT22;3415;51.148;7.014;2022-12-16T08:50:52;-6.30;1.00
6756;DHT22;3415;51.148;7.014;2022-12-16T08:53:37;-6.10;1.00
6756;DHT22;3415;51.148;7.014;2022-12-16T08:56:23;-5.60;1.00
6756;DHT22;3415;51.148;7.014;2022-12-16T08:59:07;-5.20;1.00
6756;DHT22;3415;51.148;7.014;2022-12-16T09:01:52;-4.70;1.00
6756;DHT22;3415;51.148;7.014;2022-12-16T09:04:36;-4.80;1.00
6756;DHT22;3415;51.148;7.014;2022-12-16T09:07:21;-2.90;1.00
6756;DHT22;3415;51.148;7.014;2022-12-16T09:10:06;-0.70;1.00
6756;DHT22;3415;51.148;7.014;2022-12-16T09:12:52;1.00;1.00
6756;DHT22;3415;51.148;7.014;2022-12-16T09:15:50;0.90;1.00
6756;DHT22;3415;51.148;7.014;2022-12-16T09:18:35;-0.10;1.00
6756;DHT22;3415;51.148;7.014;2022-12-16T09:21:19;-0.80;1.00
6756;DHT22;3415;51.148;7.014;2022-12-16T09:24:04;-0.30;1.00
6756;DHT22;3415;51.148;7.014;2022-12-16T09:26:49;-0.20;1.00
6756;DHT22;3415;51.148;7.014;2022-12-16T09:29:46;1.60;1.00
6756;DHT22;3415;51.148;7.014;2022-12-16T09:32:30;3.30;1.00
6756;DHT22;3415;51.148;7.014;2022-12-16T09:35:15;5.00;1.00
6756;DHT22;3415;51.148;7.014;2022-12-16T09:37:59;5.60;1.00
6756;DHT22;3415;51.148;7.014;2022-12-16T09:40:43;4.90;1.00
6756;DHT22;3415;51.148;7.014;2022-12-16T09:43:48;3.00;1.00
6756;DHT22;3415;51.148;7.014;2022-12-16T09:46:44;1.80;1.00
6756;DHT22;3415;51.148;7.014;2022-12-16T09:49:44;1.20;1.00
6756;DHT22;3415;51.148;7.014;2022-12-16T09:52:32;1.30;1.00
6756;DHT22;3415;51.148;7.014;2022-12-16T09:55:23;2.00;1.00
6756;DHT22;3415;51.148;7.014;2022-12-16T09:58:10;2.20;1.00
6756;DHT22;3415;51.148;7.014;2022-12-16T10:00:55;2.50;1.00
6756;DHT22;3415;51.148;7.014;2022-12-16T10:03:41;0.90;1.00
6756;DHT22;3415;51.148;7.014;2022-12-16T10:06:34;0.30;1.00
6756;DHT22;3415;51.148;7.014;2022-12-16T10:09:26;0.30;1.00
6756;DHT22;3415;51.148;7.014;2022-12-16T10:12:13;0.20;1.00
6756;DHT22;3415;51.148;7.014;2022-12-16T10:15:11;1.00;1.00
6756;DHT22;3415;51.148;7.014;2022-12-16T10:18:00;0.90;1.00
6756;DHT22;3415;51.148;7.014;2022-12-16T10:20:50;0.70;1.00
6756;DHT22;3415;51.148;7.014;2022-12-16T10:23:40;0.10;1.00
6756;DHT22;3415;51.148;7.014;2022-12-16T10:26:43;1.40;1.00
6756;DHT22;3415;51.148;7.014;2022-12-16T10:29:31;1.50;1.00
6756;DHT22;3415;51.148;7.014;2022-12-16T10:32:25;2.20;1.00
6756;DHT22;3415;51.148;7.014;2022-12-16T10:35:19;3.10;1.00
6756;DHT22;3415;51.148;7.014;2022-12-16T10:38:12;3.20;1.00
6756;DHT22;3415;51.148;7.014;2022-12-16T10:40:59;3.40;1.00
6756;DHT22;3415;51.148;7.014;2022-12-16T10:43:46;3.30;1.00
6756;DHT22;3415;51.148;7.014;2022-12-16T10:46:33;2.90;1.00
6756;DHT22;3415;51.148;7.014;2022-12-16T10:49:18;2.90;1.00
6756;DHT22;3415;51.148;7.014;2022-12-16T10:52:04;3.90;1.00
6756;DHT22;3415;51.148;7.014;2022-12-16T10:54:58;3.90;1.00
6756;DHT22;3415;51.148;7.014;2022-12-16T10:57:54;5.60;1.00
6756;DHT22;3415;51.148;7.014;2022-12-16T11:00:43;7.50;1.00
6756;DHT22;3415;51.148;7.014;2022-12-16T11:03:28;6.80;1.00
6756;DHT22;3415;51.148;7.014;2022-12-16T11:06:17;10.40;99.90
6756;DHT22;3415;51.148;7.014;2022-12-16T11:09:21;10.40;99.90
6756;DHT22;3415;51.148;7.014;2022-12-16T11:12:25;10.10;99.90
6756;DHT22;3415;51.148;7.014;2022-12-16T11:15:22;9.40;99.90
6756;DHT22;3415;51.148;7.014;2022-12-16T11:18:10;9.20;99.90
6756;DHT22;3415;51.148;7.014;2022-12-16T11:21:09;9.00;99.90
6756;DHT22;3415;51.148;7.014;2022-12-16T11:24:05;9.10;99.90
6756;DHT22;3415;51.148;7.014;2022-12-16T11:26:54;10.70;99.90
6756;DHT22;3415;51.148;7.014;2022-12-16T11:29:54;10.20;99.90
6756;DHT22;3415;51.148;7.014;2022-12-16T11:32:42;10.10;99.90
6756;DHT22;3415;51.148;7.014;2022-12-16T11:35:29;9.40;99.90
6756;DHT22;3415;51.148;7.014;2022-12-16T11:38:20;9.50;99.90
6756;DHT22;3415;51.148;7.014;2022-12-16T11:41:09;9.70;99.90
6756;DHT22;3415;51.148;7.014;2022-12-16T11:43:55;9.70;99.90
6756;DHT22;3415;51.148;7.014;2022-12-16T11:46:42;10.60;99.90
6756;DHT22;3415;51.148;7.014;2022-12-16T11:49:29;8.40;99.90
6756;DHT22;3415;51.148;7.014;2022-12-16T11:52:16;8.30;99.90
6756;DHT22;3415;51.148;7.014;2022-12-16T11:55:11;10.90;99.90
6756;DHT22;3415;51.148;7.014;2022-12-16T11:58:02;11.40;99.90
6756;DHT22;3415;51.148;7.014;2022-12-16T12:00:53;11.50;99.90
6756;DHT22;3415;51.148;7.014;2022-12-16T12:03:45;10.50;99.90
6756;DHT22;3415;51.148;7.014;2022-12-16T12:10:09;5.00;99.90
6756;DHT22;3415;51.148;7.014;2022-12-16T12:12:57;2.80;99.90
6756;DHT22;3415;51.148;7.014;2022-12-16T12:15:51;1.70;99.90
6756;DHT22;3415;51.148;7.014;2022-12-16T12:18:43;0.80;99.90
6756;DHT22;3415;51.148;7.014;2022-12-16T12:21:41;0.40;99.90
6756;DHT22;3415;51.148;7.014;2022-12-16T12:24:36;0.20;99.90
6756;DHT22;3415;51.148;7.014;2022-12-16T12:27:28;-0.10;99.90
6756;DHT22;3415;51.148;7.014;2022-12-16T12:30:16;-0.30;99.90
6756;DHT22;3415;51.148;7.014;2022-12-16T12:33:14;-0.40;99.90
6756;DHT22;3415;51.148;7.014;2022-12-16T12:36:10;-0.50;99.90
6756;DHT22;3415;51.148;7.014;2022-12-16T12:39:13;-0.70;99.90
6756;DHT22;3415;51.148;7.014;2022-12-16T12:42:16;-0.70;1.00
6756;DHT22;3415;51.148;7.014;2022-12-16T12:45:17;-0.80;1.00
6756;DHT22;3415;51.148;7.014;2022-12-16T12:48:09;-0.80;1.00
6756;DHT22;3415;51.148;7.014;2022-12-16T12:51:01;-0.70;1.00
6756;DHT22;3415;51.148;7.014;2022-12-16T12:53:56;-0.60;1.00
6756;DHT22;3415;51.148;7.014;2022-12-16T12:56:47;-0.60;1.00
6756;DHT22;3415;51.148;7.014;2022-12-16T12:59:40;-0.70;1.00
6756;DHT22;3415;51.148;7.014;2022-12-16T13:02:28;-0.70;1.00
6756;DHT22;3415;51.148;7.014;2022-12-16T13:05:16;-0.70;1.00
6756;DHT22;3415;51.148;7.014;2022-12-16T13:08:31;-0.70;1.00
6756;DHT22;3415;51.148;7.014;2022-12-16T13:11:17;-0.70;1.00
6756;DHT22;3415;51.148;7.014;2022-12-16T13:17:06;-0.90;1.00
6756;DHT22;3415;51.148;7.014;2022-12-16T13:19:57;-0.90;1.00
6756;DHT22;3415;51.148;7.014;2022-12-16T13:22:43;-0.90;1.00
6756;DHT22;3415;51.148;7.014;2022-12-16T13:25:36;-0.90;1.00
6756;DHT22;3415;51.148;7.014;2022-12-16T13:28:24;-1.00;1.00
6756;DHT22;3415;51.148;7.014;2022-12-16T13:31:09;-1.00;1.00
6756;DHT22;3415;51.148;7.014;2022-12-16T13:33:58;-0.90;1.00
6756;DHT22;3415;51.148;7.014;2022-12-16T13:36:52;-0.90;1.00
6756;DHT22;3415;51.148;7.014;2022-12-16T13:39:37;-0.80;1.00
6756;DHT22;3415;51.148;7.014;2022-12-16T13:42:49;-0.80;1.00
6756;DHT22;3415;51.148;7.014;2022-12-16T13:46:14;-1.00;1.00
6756;DHT22;3415;51.148;7.014;2022-12-16T13:49:37;-0.90;1.00
6756;DHT22;3415;51.148;7.014;2022-12-16T13:52:30;-0.90;1.00
6756;DHT22;3415;51.148;7.014;2022-12-16T13:55:22;-1.00;1.00
6756;DHT22;3415;51.148;7.014;2022-12-16T13:58:17;-1.10;1.00
6756;DHT22;3415;51.148;7.014;2022-12-16T14:01:05;-1.10;1.00
6756;DHT22;3415;51.148;7.014;2022-12-16T14:03:54;-1.10;1.00
6756;DHT22;3415;51.148;7.014;2022-12-16T14:06:41;-1.00;1.00
6756;DHT22;3415;51.148;7.014;2022-12-16T14:09:34;-1.10;1.00
6756;DHT22;3415;51.148;7.014;2022-12-16T14:12:45;-1.10;1.00
6756;DHT22;3415;51.148;7.014;2022-12-16T14:15:35;-1.10;1.00
6756;DHT22;3415;51.148;7.014;2022-12-16T14:18:32;-1.20;1.00
6756;DHT22;3415;51.148;7.014;2022-12-16T14:21:26;-1.20;1.00
6756;DHT22;3415;51.148;7.014;2022-12-16T14:24:21;-1.30;1.00
6756;DHT22;3415;51.148;7.014;2022-12-16T14:27:12;-1.30;1.00
6756;DHT22;3415;51.148;7.014;2022-12-16T14:29:57;-1.30;1.00
6756;DHT22;3415;51.148;7.014;2022-12-16T14:32:42;-1.30;1.00
6756;DHT22;3415;51.148;7.014;2022-12-16T14:35:26;-1.30;1.00
6756;DHT22;3415;51.148;7.014;2022-12-16T14:38:23;-1.40;1.00
6756;DHT22;3415;51.148;7.014;2022-12-16T14:41:12;-1.60;1.00
6756;DHT22;3415;51.148;7.014;2022-12-16T14:43:57;-1.70;1.00
6756;DHT22;3415;51.148;7.014;2022-12-16T14:46:42;-1.80;1.00
6756;DHT22;3415;51.148;7.014;2022-12-16T14:49:32;-1.80;1.00
6756;DHT22;3415;51.148;7.014;2022-12-16T14:52:18;-1.80;1.00
6756;DHT22;3415;51.148;7.014;2022-12-16T14:55:10;-1.90;1.00
6756;DHT22;3415;51.148;7.014;2022-12-16T14:58:02;-2.00;1.00
6756;DHT22;3415;51.148;7.014;2022-12-16T15:00:48;-2.00;1.00
6756;DHT22;3415;51.148;7.014;2022-12-16T15:03:36;-2.10;1.00
6756;DHT22;3415;51.148;7.014;2022-12-16T15:06:25;-2.30;1.00
6756;DHT22;3415;51.148;7.014;2022-12-16T15:09:16;-2.30;1.00
6756;DHT22;3415;51.148;7.014;2022-12-16T15:12:03;-2.30;1.00
6756;DHT22;3415;51.148;7.014;2022-12-16T15:14:48;-2.30;1.00
6756;DHT22;3415;51.148;7.014;2022-12-16T15:17:42;-2.40;1.00
6756;DHT22;3415;51.148;7.014;2022-12-16T15:20:29;-2.50;1.00
6756;DHT22;3415;51.148;7.014;2022-12-16T15:23:18;-2.60;1.00
6756;DHT22;3415;51.148;7.014;2022-12-16T15:26:03;-2.70;1.00
6756;DHT22;3415;51.148;7.014;2022-12-16T15:28:50;-2.70;1.00
6756;DHT22;3415;51.148;7.014;2022-12-16T15:31:36;-2.80;1.00
6756;DHT22;3415;51.148;7.014;2022-12-16T15:34:24;-2.70;1.00
6756;DHT22;3415;51.148;7.014;2022-12-16T15:37:21;-2.60;1.00
6756;DHT22;3415;51.148;7.014;2022-12-16T15:40:21;-2.50;1.00
6756;DHT22;3415;51.148;7.014;2022-12-16T15:43:19;-2.50;1.00
6756;DHT22;3415;51.148;7.014;2022-12-16T15:46:05;-2.50;1.00
6756;DHT22;3415;51.148;7.014;2022-12-16T15:48:49;-3.10;1.00
6756;DHT22;3415;51.148;7.014;2022-12-16T15:51:42;-2.50;1.00
6756;DHT22;3415;51.148;7.014;2022-12-16T15:54:28;-2.50;1.00
6756;DHT22;3415;51.148;7.014;2022-12-16T15:57:26;-2.50;1.00
6756;DHT22;3415;51.148;7.014;2022-12-16T16:00:20;-2.50;1.00
6756;DHT22;3415;51.148;7.014;2022-12-16T16:03:17;-2.50;1.00
6756;DHT22;3415;51.148;7.014;2022-12-16T16:06:02;-2.70;1.00
6756;DHT22;3415;51.148;7.014;2022-12-16T16:08:49;-2.60;1.00
6756;DHT22;3415;51.148;7.014;2022-12-16T16:11:48;-2.70;1.00
6756;DHT22;3415;51.148;7.014;2022-12-16T16:14:32;-2.50;1.00
6756;DHT22;3415;51.148;7.014;2022-12-16T16:17:21;-2.60;1.00
6756;DHT22;3415;51.148;7.014;2022-12-16T16:20:13;-2.60;1.00
6756;DHT22;3415;51.148;7.014;2022-12-16T16:22:58;-2.50;1.00
6756;DHT22;3415;51.148;7.014;2022-12-16T16:25:42;-2.50;1.00
6756;DHT22;3415;51.148;7.014;2022-12-16T16:28:26;-2.40;1.00
6756;DHT22;3415;51.148;7.014;2022-12-16T16:31:11;-2.50;1.00
6756;DHT22;3415;51.148;7.014;2022-12-16T16:34:09;-2.50;1.00
6756;DHT22;3415;51.148;7.014;2022-12-16T16:36:56;-2.50;1.00
6756;DHT22;3415;51.148;7.014;2022-12-16T16:39:42;-2.40;1.00
6756;DHT22;3415;51.148;7.014;2022-12-16T16:42:26;-2.40;1.00
6756;DHT22;3415;51.148;7.014;2022-12-16T16:45:10;-2.40;1.00
6756;DHT22;3415;51.148;7.014;2022-12-16T16:48:02;-2.50;1.00
6756;DHT22;3415;51.148;7.014;2022-12-16T16:50:59;-2.40;1.00
6756;DHT22;3415;51.148;7.014;2022-12-16T16:53:45;-2.00;1.00
6756;DHT22;3415;51.148;7.014;2022-12-16T16:56:32;-2.30;1.00
6756;DHT22;3415;51.148;7.014;2022-12-16T16:59:16;-2.40;1.00
6756;DHT22;3415;51.148;7.014;2022-12-16T17:02:01;-2.30;1.00
6756;DHT22;3415;51.148;7.014;2022-12-16T17:04:45;-2.30;1.00
6756;DHT22;3415;51.148;7.014;2022-12-16T17:07:29;-2.30;1.00
6756;DHT22;3415;51.148;7.014;2022-12-16T17:10:15;-2.20;1.00
6756;DHT22;3415;51.148;7.014;2022-12-16T17:12:59;-2.20;1.00
6756;DHT22;3415;51.148;7.014;2022-12-16T17:15:43;-2.20;1.00
6756;DHT22;3415;51.148;7.014;2022-12-16T17:21:11;-2.10;1.00
6756;DHT22;3415;51.148;7.014;2022-12-16T17:23:56;-2.30;1.00
6756;DHT22;3415;51.148;7.014;2022-12-16T17:26:41;-2.40;1.00
6756;DHT22;3415;51.148;7.014;2022-12-16T17:29:26;-2.30;1.00
6756;DHT22;3415;51.148;7.014;2022-12-16T17:32:11;-2.20;1.00
6756;DHT22;3415;51.148;7.014;2022-12-16T17:34:55;-2.30;1.00
6756;DHT22;3415;51.148;7.014;2022-12-16T17:37:40;-2.30;1.00
6756;DHT22;3415;51.148;7.014;2022-12-16T17:43:10;-2.40;2.00
6756;DHT22;3415;51.148;7.014;2022-12-16T17:45:57;-2.40;33.20
6756;DHT22;3415;51.148;7.014;2022-12-16T17:48:42;-2.30;80.80
6756;DHT22;3415;51.148;7.014;2022-12-16T17:51:26;-2.30;99.90
6756;DHT22;3415;51.148;7.014;2022-12-16T17:54:10;-2.30;99.90
6756;DHT22;3415;51.148;7.014;2022-12-16T17:56:55;-2.20;99.90
6756;DHT22;3415;51.148;7.014;2022-12-16T17:59:40;-2.20;99.90
6756;DHT22;3415;51.148;7.014;2022-12-16T18:02:25;-2.00;99.90
6756;DHT22;3415;51.148;7.014;2022-12-16T18:05:09;-2.20;99.90
6756;DHT22;3415;51.148;7.014;2022-12-16T18:07:53;-2.20;99.90
6756;DHT22;3415;51.148;7.014;2022-12-16T18:10:37;-2.20;99.90
6756;DHT22;3415;51.148;7.014;2022-12-16T18:16:07;-2.10;99.90
6756;DHT22;3415;51.148;7.014;2022-12-16T18:18:51;-2.00;99.90
6756;DHT22;3415;51.148;7.014;2022-12-16T18:21:35;-2.00;99.90
6756;DHT22;3415;51.148;7.014;2022-12-16T18:24:19;-2.00;99.90
6756;DHT22;3415;51.148;7.014;2022-12-16T18:27:03;-2.00;99.90
6756;DHT22;3415;51.148;7.014;2022-12-16T18:29:48;-2.00;99.90
6756;DHT22;3415;51.148;7.014;2022-12-16T18:32:33;-2.00;99.90
6756;DHT22;3415;51.148;7.014;2022-12-16T18:35:17;-2.00;99.90
6756;DHT22;3415;51.148;7.014;2022-12-16T18:38:02;-2.00;99.90
6756;DHT22;3415;51.148;7.014;2022-12-16T18:40:46;-2.00;99.90
6756;DHT22;3415;51.148;7.014;2022-12-16T18:43:30;-2.00;99.90
6756;DHT22;3415;51.148;7.014;2022-12-16T18:46:14;-1.90;99.90
6756;DHT22;3415;51.148;7.014;2022-12-16T18:49:00;-2.00;99.90
6756;DHT22;3415;51.148;7.014;2022-12-16T18:51:44;-2.00;99.90
6756;DHT22;3415;51.148;7.014;2022-12-16T18:54:28;-2.00;99.90
6756;DHT22;3415;51.148;7.014;2022-12-16T18:57:13;-2.00;99.90
6756;DHT22;3415;51.148;7.014;2022-12-16T18:59:57;-2.00;99.90
6756;DHT22;3415;51.148;7.014;2022-12-16T19:02:41;-2.00;99.90
6756;DHT22;3415;51.148;7.014;2022-12-16T19:05:27;-2.00;99.90
6756;DHT22;3415;51.148;7.014;2022-12-16T19:08:12;-2.10;99.90
6756;DHT22;3415;51.148;7.014;2022-12-16T19:11:11;-2.10;99.90
6756;DHT22;3415;51.148;7.014;2022-12-16T19:13:55;-2.00;99.90
6756;DHT22;3415;51.148;7.014;2022-12-16T19:16:48;-1.90;99.90
6756;DHT22;3415;51.148;7.014;2022-12-16T19:19:33;-2.00;99.90
6756;DHT22;3415;51.148;7.014;2022-12-16T19:22:19;-2.20;99.90
6756;DHT22;3415;51.148;7.014;2022-12-16T19:25:04;-2.20;99.90
6756;DHT22;3415;51.148;7.014;2022-12-16T19:27:48;-2.20;99.90
6756;DHT22;3415;51.148;7.014;2022-12-16T19:30:32;-2.10;99.90
6756;DHT22;3415;51.148;7.014;2022-12-16T19:33:25;-2.20;99.90
6756;DHT22;3415;51.148;7.014;2022-12-16T19:36:09;-2.00;99.90
6756;DHT22;3415;51.148;7.014;2022-12-16T19:38:55;-2.00;99.90
6756;DHT22;3415;51.148;7.014;2022-12-16T19:41:39;-2.10;99.90
6756;DHT22;3415;51.148;7.014;2022-12-16T19:44:24;-2.20;99.90
6756;DHT22;3415;51.148;7.014;2022-12-16T19:47:08;-2.30;99.90
6756;DHT22;3415;51.148;7.014;2022-12-16T19:50:00;-2.30;99.90
6756;DHT22;3415;51.148;7.014;2022-12-16T19:52:48;-2.30;99.90
6756;DHT22;3415;51.148;7.014;2022-12-16T19:55:34;-2.30;99.90
6756;DHT22;3415;51.148;7.014;2022-12-16T19:58:18;-2.20;99.90